sensor_id;sensor_type;location;lat;lon;timestamp;P1;durP1;ratioP1;P2;durP2;ratioP2
71914;SDS011;60387;49.994;14.660;2023-03-21T00:01:18;8.77;;;3.20;;
71914;SDS011;60387;49.994;14.660;2023-03-21T00:03:52;9.60;;;3.00;;
71914;SDS011;60387;49.994;14.660;2023-03-21T00:06:25;8.13;;;2.50;;
71914;SDS011;60387;49.994;14.660;2023-03-21T00:08:58;8.80;;;3.17;;
71914;SDS011;60387;49.994;14.660;2023-03-21T00:11:31;9.77;;;2.90;;
71914;SDS011;60387;49.994;14.660;2023-03-21T00:14:05;8.10;;;3.10;;
71914;SDS011;60387;49.994;14.660;2023-03-21T00:16:38;9.20;;;2.97;;
71914;SDS011;60387;49.994;14.660;2023-03-21T00:19:11;10.57;;;3.17;;
71914;SDS011;60387;49.994;14.660;2023-03-21T00:21:45;10.00;;;3.37;;
71914;SDS011;60387;49.994;14.660;2023-03-21T00:24:18;8.30;;;2.63;;
71914;SDS011;60387;49.994;14.660;2023-03-21T00:26:51;9.33;;;3.00;;
71914;SDS011;60387;49.994;14.660;2023-03-21T00:29:25;9.10;;;2.90;;
71914;SDS011;60387;49.994;14.660;2023-03-21T00:31:58;10.47;;;2.87;;
71914;SDS011;60387;49.994;14.660;2023-03-21T00:34:31;9.30;;;2.90;;
71914;SDS011;60387;49.994;14.660;2023-03-21T00:37:05;8.30;;;2.87;;
71914;SDS011;60387;49.994;14.660;2023-03-21T00:39:38;12.43;;;3.30;;
71914;SDS011;60387;49.994;14.660;2023-03-21T00:42:11;10.07;;;3.00;;
71914;SDS011;60387;49.994;14.660;2023-03-21T00:44:44;9.27;;;2.70;;
71914;SDS011;60387;49.994;14.660;2023-03-21T00:47:18;12.05;;;3.45;;
71914;SDS011;60387;49.994;14.660;2023-03-21T00:49:51;11.20;;;3.28;;
71914;SDS011;60387;49.994;14.660;2023-03-21T00:52:24;10.73;;;3.00;;
71914;SDS011;60387;49.994;14.660;2023-03-21T00:54:58;10.87;;;3.23;;
71914;SDS011;60387;49.994;14.660;2023-03-21T00:57:31;10.40;;;3.50;;
71914;SDS011;60387;49.994;14.660;2023-03-21T01:00:04;10.43;;;2.67;;
71914;SDS011;60387;49.994;14.660;2023-03-21T01:02:40;9.13;;;3.35;;
71914;SDS011;60387;49.994;14.660;2023-03-21T01:05:13;8.70;;;3.30;;
71914;SDS011;60387;49.994;14.660;2023-03-21T01:07:46;9.63;;;3.08;;
71914;SDS011;60387;49.994;14.660;2023-03-21T01:10:20;10.53;;;3.27;;
71914;SDS011;60387;49.994;14.660;2023-03-21T01:12:53;9.80;;;3.07;;
71914;SDS011;60387;49.994;14.660;2023-03-21T01:15:26;10.23;;;3.27;;
71914;SDS011;60387;49.994;14.660;2023-03-21T01:18:00;9.63;;;3.33;;
71914;SDS011;60387;49.994;14.660;2023-03-21T01:20:34;11.23;;;3.50;;
71914;SDS011;60387;49.994;14.660;2023-03-21T01:23:08;9.47;;;3.33;;
71914;SDS011;60387;49.994;14.660;2023-03-21T01:25:42;10.25;;;3.65;;
71914;SDS011;60387;49.994;14.660;2023-03-21T01:28:16;11.70;;;3.57;;
71914;SDS011;60387;49.994;14.660;2023-03-21T01:30:49;8.77;;;3.13;;
71914;SDS011;60387;49.994;14.660;2023-03-21T01:33:23;10.02;;;3.20;;
71914;SDS011;60387;49.994;14.660;2023-03-21T01:35:57;10.13;;;3.50;;
71914;SDS011;60387;49.994;14.660;2023-03-21T01:38:30;11.43;;;3.30;;
71914;SDS011;60387;49.994;14.660;2023-03-21T01:41:03;10.10;;;3.20;;
71914;SDS011;60387;49.994;14.660;2023-03-21T01:43:37;10.32;;;3.72;;
71914;SDS011;60387;49.994;14.660;2023-03-21T01:49:38;9.13;;;2.90;;
71914;SDS011;60387;49.994;14.660;2023-03-21T01:52:05;10.85;;;3.28;;
71914;SDS011;60387;49.994;14.660;2023-03-21T01:54:42;11.98;;;3.50;;
71914;SDS011;60387;49.994;14.660;2023-03-21T01:57:19;10.77;;;3.42;;
71914;SDS011;60387;49.994;14.660;2023-03-21T01:59:57;10.00;;;3.38;;
71914;SDS011;60387;49.994;14.660;2023-03-21T02:02:33;11.07;;;3.27;;
71914;SDS011;60387;49.994;14.660;2023-03-21T02:05:06;10.05;;;3.10;;
71914;SDS011;60387;49.994;14.660;2023-03-21T02:07:40;11.20;;;3.23;;
71914;SDS011;60387;49.994;14.660;2023-03-21T02:10:15;10.98;;;3.70;;
71914;SDS011;60387;49.994;14.660;2023-03-21T02:12:49;10.53;;;2.97;;
71914;SDS011;60387;49.994;14.660;2023-03-21T02:15:22;10.57;;;3.55;;
71914;SDS011;60387;49.994;14.660;2023-03-21T02:18:01;11.18;;;3.83;;
71914;SDS011;60387;49.994;14.660;2023-03-21T02:32:44;12.55;;;3.42;;
71914;SDS011;60387;49.994;14.660;2023-03-21T02:38:31;11.63;;;3.40;;
71914;SDS011;60387;49.994;14.660;2023-03-21T02:41:28;10.77;;;3.70;;
71914;SDS011;60387;49.994;14.660;2023-03-21T02:44:43;10.87;;;3.50;;
71914;SDS011;60387;49.994;14.660;2023-03-21T02:47:52;11.60;;;3.50;;
71914;SDS011;60387;49.994;14.660;2023-03-21T02:50:32;12.20;;;3.80;;
71914;SDS011;60387;49.994;14.660;2023-03-21T02:53:07;12.45;;;4.38;;
71914;SDS011;60387;49.994;14.660;2023-03-21T02:55:43;11.00;;;3.42;;
71914;SDS011;60387;49.994;14.660;2023-03-21T02:58:19;12.67;;;4.40;;
71914;SDS011;60387;49.994;14.660;2023-03-21T03:00:55;13.35;;;4.35;;
71914;SDS011;60387;49.994;14.660;2023-03-21T03:03:28;12.10;;;3.70;;
71914;SDS011;60387;49.994;14.660;2023-03-21T03:06:02;11.90;;;3.70;;
71914;SDS011;60387;49.994;14.660;2023-03-21T03:11:37;12.77;;;4.20;;
71914;SDS011;60387;49.994;14.660;2023-03-21T03:17:12;12.20;;;4.10;;
71914;SDS011;60387;49.994;14.660;2023-03-21T03:25:53;13.45;;;4.25;;
71914;SDS011;60387;49.994;14.660;2023-03-21T03:28:29;12.93;;;4.20;;
71914;SDS011;60387;49.994;14.660;2023-03-21T03:31:07;13.77;;;4.70;;
71914;SDS011;60387;49.994;14.660;2023-03-21T03:33:44;12.45;;;4.43;;
71914;SDS011;60387;49.994;14.660;2023-03-21T03:36:20;13.40;;;4.13;;
71914;SDS011;60387;49.994;14.660;2023-03-21T03:38:58;14.57;;;4.57;;
71914;SDS011;60387;49.994;14.660;2023-03-21T03:42:16;13.63;;;4.03;;
71914;SDS011;60387;49.994;14.660;2023-03-21T03:44:34;13.00;;;3.83;;
71914;SDS011;60387;49.994;14.660;2023-03-21T03:47:12;12.82;;;4.13;;
71914;SDS011;60387;49.994;14.660;2023-03-21T03:50:06;12.07;;;3.80;;
71914;SDS011;60387;49.994;14.660;2023-03-21T03:52:47;11.90;;;4.35;;
71914;SDS011;60387;49.994;14.660;2023-03-21T03:55:24;12.70;;;4.30;;
71914;SDS011;60387;49.994;14.660;2023-03-21T03:58:00;12.00;;;4.22;;
71914;SDS011;60387;49.994;14.660;2023-03-21T04:00:33;10.40;;;3.53;;
71914;SDS011;60387;49.994;14.660;2023-03-21T04:03:07;12.57;;;4.00;;
71914;SDS011;60387;49.994;14.660;2023-03-21T04:05:40;13.87;;;4.43;;
71914;SDS011;60387;49.994;14.660;2023-03-21T04:08:14;12.17;;;3.83;;
71914;SDS011;60387;49.994;14.660;2023-03-21T04:10:48;13.13;;;3.72;;
71914;SDS011;60387;49.994;14.660;2023-03-21T04:13:22;13.47;;;3.93;;
71914;SDS011;60387;49.994;14.660;2023-03-21T04:15:55;14.03;;;4.40;;
71914;SDS011;60387;49.994;14.660;2023-03-21T04:18:28;13.33;;;4.40;;
71914;SDS011;60387;49.994;14.660;2023-03-21T04:21:05;13.15;;;4.40;;
71914;SDS011;60387;49.994;14.660;2023-03-21T04:23:42;13.53;;;4.00;;
71914;SDS011;60387;49.994;14.660;2023-03-21T04:26:16;14.68;;;4.97;;
71914;SDS011;60387;49.994;14.660;2023-03-21T04:28:49;13.45;;;4.70;;
71914;SDS011;60387;49.994;14.660;2023-03-21T04:31:23;12.45;;;4.72;;
71914;SDS011;60387;49.994;14.660;2023-03-21T04:33:56;16.20;;;4.23;;
71914;SDS011;60387;49.994;14.660;2023-03-21T04:36:30;12.75;;;4.55;;
71914;SDS011;60387;49.994;14.660;2023-03-21T04:39:04;12.77;;;4.27;;
71914;SDS011;60387;49.994;14.660;2023-03-21T04:41:38;14.60;;;4.05;;
71914;SDS011;60387;49.994;14.660;2023-03-21T04:44:16;14.93;;;4.43;;
71914;SDS011;60387;49.994;14.660;2023-03-21T04:46:50;14.75;;;3.97;;
71914;SDS011;60387;49.994;14.660;2023-03-21T04:49:23;14.30;;;4.60;;
71914;SDS011;60387;49.994;14.660;2023-03-21T04:51:57;14.57;;;4.47;;
71914;SDS011;60387;49.994;14.660;2023-03-21T04:54:30;14.30;;;4.95;;
71914;SDS011;60387;49.994;14.660;2023-03-21T04:57:04;14.83;;;4.20;;
71914;SDS011;60387;49.994;14.660;2023-03-21T04:59:37;13.63;;;4.27;;
71914;SDS011;60387;49.994;14.660;2023-03-21T05:02:10;13.70;;;4.97;;
71914;SDS011;60387;49.994;14.660;2023-03-21T05:04:44;15.68;;;4.95;;
71914;SDS011;60387;49.994;14.660;2023-03-21T05:07:17;16.37;;;4.87;;
71914;SDS011;60387;49.994;14.660;2023-03-21T05:09:51;16.23;;;4.80;;
71914;SDS011;60387;49.994;14.660;2023-03-21T05:12:24;17.37;;;4.90;;
71914;SDS011;60387;49.994;14.660;2023-03-21T05:14:57;12.33;;;3.93;;
71914;SDS011;60387;49.994;14.660;2023-03-21T05:17:31;13.40;;;4.43;;
71914;SDS011;60387;49.994;14.660;2023-03-21T05:20:04;14.30;;;4.57;;
71914;SDS011;60387;49.994;14.660;2023-03-21T05:22:38;17.48;;;4.80;;
71914;SDS011;60387;49.994;14.660;2023-03-21T05:25:11;15.93;;;4.63;;
71914;SDS011;60387;49.994;14.660;2023-03-21T05:27:44;13.93;;;4.47;;
71914;SDS011;60387;49.994;14.660;2023-03-21T05:30:18;15.00;;;4.57;;
71914;SDS011;60387;49.994;14.660;2023-03-21T05:32:52;16.92;;;5.60;;
71914;SDS011;60387;49.994;14.660;2023-03-21T05:35:25;16.70;;;6.03;;
71914;SDS011;60387;49.994;14.660;2023-03-21T05:37:59;17.83;;;5.32;;
71914;SDS011;60387;49.994;14.660;2023-03-21T05:40:32;16.33;;;5.30;;
71914;SDS011;60387;49.994;14.660;2023-03-21T05:43:06;13.60;;;4.57;;
71914;SDS011;60387;49.994;14.660;2023-03-21T05:45:39;14.90;;;4.63;;
71914;SDS011;60387;49.994;14.660;2023-03-21T05:48:12;14.83;;;4.43;;
71914;SDS011;60387;49.994;14.660;2023-03-21T05:50:45;11.47;;;3.73;;
71914;SDS011;60387;49.994;14.660;2023-03-21T05:53:19;13.63;;;4.53;;
71914;SDS011;60387;49.994;14.660;2023-03-21T05:55:52;14.33;;;4.33;;
71914;SDS011;60387;49.994;14.660;2023-03-21T05:58:25;14.40;;;4.10;;
71914;SDS011;60387;49.994;14.660;2023-03-21T06:00:59;13.48;;;4.75;;
71914;SDS011;60387;49.994;14.660;2023-03-21T06:03:32;12.52;;;3.85;;
71914;SDS011;60387;49.994;14.660;2023-03-21T06:06:05;12.50;;;4.07;;
71914;SDS011;60387;49.994;14.660;2023-03-21T06:08:39;13.17;;;4.20;;
71914;SDS011;60387;49.994;14.660;2023-03-21T06:11:18;14.30;;;4.20;;
71914;SDS011;60387;49.994;14.660;2023-03-21T06:13:56;13.48;;;4.22;;
71914;SDS011;60387;49.994;14.660;2023-03-21T06:16:29;11.90;;;4.17;;
71914;SDS011;60387;49.994;14.660;2023-03-21T06:19:03;11.43;;;4.30;;
71914;SDS011;60387;49.994;14.660;2023-03-21T06:21:36;13.73;;;4.43;;
71914;SDS011;60387;49.994;14.660;2023-03-21T06:24:10;11.77;;;4.13;;
71914;SDS011;60387;49.994;14.660;2023-03-21T06:26:43;13.43;;;4.30;;
71914;SDS011;60387;49.994;14.660;2023-03-21T06:29:17;11.67;;;4.13;;
71914;SDS011;60387;49.994;14.660;2023-03-21T06:31:50;15.00;;;4.13;;
71914;SDS011;60387;49.994;14.660;2023-03-21T06:34:24;13.15;;;4.13;;
71914;SDS011;60387;49.994;14.660;2023-03-21T06:36:57;11.23;;;4.00;;
71914;SDS011;60387;49.994;14.660;2023-03-21T06:39:30;10.20;;;3.87;;
71914;SDS011;60387;49.994;14.660;2023-03-21T06:42:03;10.93;;;3.43;;
71914;SDS011;60387;49.994;14.660;2023-03-21T06:44:37;12.47;;;3.90;;
71914;SDS011;60387;49.994;14.660;2023-03-21T06:47:10;10.73;;;3.80;;
71914;SDS011;60387;49.994;14.660;2023-03-21T06:49:43;11.77;;;3.70;;
71914;SDS011;60387;49.994;14.660;2023-03-21T06:52:17;12.00;;;4.00;;
71914;SDS011;60387;49.994;14.660;2023-03-21T06:54:50;11.63;;;4.30;;
71914;SDS011;60387;49.994;14.660;2023-03-21T06:57:23;11.82;;;3.88;;
71914;SDS011;60387;49.994;14.660;2023-03-21T06:59:57;9.20;;;3.37;;
71914;SDS011;60387;49.994;14.660;2023-03-21T07:02:30;10.40;;;3.43;;
71914;SDS011;60387;49.994;14.660;2023-03-21T07:05:03;11.13;;;3.83;;
71914;SDS011;60387;49.994;14.660;2023-03-21T07:07:37;11.57;;;3.30;;
71914;SDS011;60387;49.994;14.660;2023-03-21T07:10:11;11.73;;;3.75;;
71914;SDS011;60387;49.994;14.660;2023-03-21T07:12:44;10.50;;;3.80;;
71914;SDS011;60387;49.994;14.660;2023-03-21T07:15:17;10.80;;;3.27;;
71914;SDS011;60387;49.994;14.660;2023-03-21T07:17:51;9.60;;;3.30;;
71914;SDS011;60387;49.994;14.660;2023-03-21T07:20:24;10.15;;;3.33;;
71914;SDS011;60387;49.994;14.660;2023-03-21T07:22:58;10.50;;;3.07;;
71914;SDS011;60387;49.994;14.660;2023-03-21T07:25:31;6.97;;;2.27;;
71914;SDS011;60387;49.994;14.660;2023-03-21T07:28:05;9.50;;;2.88;;
71914;SDS011;60387;49.994;14.660;2023-03-21T07:30:38;10.17;;;3.00;;
71914;SDS011;60387;49.994;14.660;2023-03-21T07:33:12;9.83;;;3.37;;
71914;SDS011;60387;49.994;14.660;2023-03-21T07:35:45;9.03;;;3.10;;
71914;SDS011;60387;49.994;14.660;2023-03-21T07:38:18;11.37;;;2.83;;
71914;SDS011;60387;49.994;14.660;2023-03-21T07:40:52;9.65;;;2.80;;
71914;SDS011;60387;49.994;14.660;2023-03-21T07:43:25;9.40;;;3.03;;
71914;SDS011;60387;49.994;14.660;2023-03-21T07:45:59;9.27;;;2.97;;
71914;SDS011;60387;49.994;14.660;2023-03-21T07:48:33;9.80;;;3.08;;
71914;SDS011;60387;49.994;14.660;2023-03-21T07:51:06;8.17;;;3.03;;
71914;SDS011;60387;49.994;14.660;2023-03-21T07:53:39;11.03;;;3.17;;
71914;SDS011;60387;49.994;14.660;2023-03-21T07:56:13;10.10;;;3.17;;
71914;SDS011;60387;49.994;14.660;2023-03-21T07:58:46;9.90;;;3.43;;
71914;SDS011;60387;49.994;14.660;2023-03-21T08:01:19;9.83;;;3.30;;
71914;SDS011;60387;49.994;14.660;2023-03-21T08:03:53;8.83;;;3.63;;
71914;SDS011;60387;49.994;14.660;2023-03-21T08:06:26;10.35;;;3.35;;
71914;SDS011;60387;49.994;14.660;2023-03-21T08:09:00;10.00;;;3.37;;
71914;SDS011;60387;49.994;14.660;2023-03-21T08:11:33;10.63;;;3.65;;
71914;SDS011;60387;49.994;14.660;2023-03-21T08:14:07;10.30;;;3.37;;
71914;SDS011;60387;49.994;14.660;2023-03-21T08:16:40;10.33;;;3.17;;
71914;SDS011;60387;49.994;14.660;2023-03-21T08:19:13;8.70;;;3.10;;
71914;SDS011;60387;49.994;14.660;2023-03-21T08:21:47;11.07;;;3.87;;
71914;SDS011;60387;49.994;14.660;2023-03-21T08:24:21;9.50;;;3.20;;
71914;SDS011;60387;49.994;14.660;2023-03-21T08:26:54;10.27;;;3.40;;
71914;SDS011;60387;49.994;14.660;2023-03-21T08:29:27;8.00;;;3.20;;
71914;SDS011;60387;49.994;14.660;2023-03-21T08:32:01;10.10;;;3.07;;
71914;SDS011;60387;49.994;14.660;2023-03-21T08:34:34;9.13;;;3.50;;
71914;SDS011;60387;49.994;14.660;2023-03-21T08:37:07;9.50;;;3.40;;
71914;SDS011;60387;49.994;14.660;2023-03-21T08:39:40;10.67;;;4.00;;
71914;SDS011;60387;49.994;14.660;2023-03-21T08:42:14;11.40;;;3.15;;
71914;SDS011;60387;49.994;14.660;2023-03-21T08:44:48;9.57;;;2.87;;
71914;SDS011;60387;49.994;14.660;2023-03-21T08:47:21;10.97;;;3.80;;
71914;SDS011;60387;49.994;14.660;2023-03-21T08:49:55;10.03;;;3.70;;
71914;SDS011;60387;49.994;14.660;2023-03-21T08:52:29;11.38;;;3.60;;
71914;SDS011;60387;49.994;14.660;2023-03-21T08:55:02;10.53;;;3.23;;
71914;SDS011;60387;49.994;14.660;2023-03-21T08:57:36;10.77;;;3.72;;
71914;SDS011;60387;49.994;14.660;2023-03-21T09:00:11;10.43;;;4.10;;
71914;SDS011;60387;49.994;14.660;2023-03-21T09:02:47;9.60;;;3.83;;
71914;SDS011;60387;49.994;14.660;2023-03-21T09:05:21;9.32;;;3.30;;
71914;SDS011;60387;49.994;14.660;2023-03-21T09:07:55;12.53;;;3.67;;
71914;SDS011;60387;49.994;14.660;2023-03-21T09:10:28;10.67;;;3.10;;
71914;SDS011;60387;49.994;14.660;2023-03-21T09:13:01;9.40;;;3.33;;
71914;SDS011;60387;49.994;14.660;2023-03-21T09:15:35;10.97;;;3.60;;
71914;SDS011;60387;49.994;14.660;2023-03-21T09:18:08;11.80;;;4.00;;
71914;SDS011;60387;49.994;14.660;2023-03-21T09:20:42;10.25;;;3.45;;
71914;SDS011;60387;49.994;14.660;2023-03-21T09:23:16;9.27;;;3.83;;
71914;SDS011;60387;49.994;14.660;2023-03-21T09:25:49;8.77;;;3.50;;
71914;SDS011;60387;49.994;14.660;2023-03-21T09:28:23;11.67;;;3.90;;
71914;SDS011;60387;49.994;14.660;2023-03-21T09:30:57;9.03;;;3.63;;
71914;SDS011;60387;49.994;14.660;2023-03-21T09:33:30;10.00;;;3.37;;
71914;SDS011;60387;49.994;14.660;2023-03-21T09:36:04;8.70;;;3.50;;
71914;SDS011;60387;49.994;14.660;2023-03-21T09:38:39;9.70;;;3.30;;
71914;SDS011;60387;49.994;14.660;2023-03-21T09:46:51;7.90;;;2.90;;
71914;SDS011;60387;49.994;14.660;2023-03-21T09:49:33;8.85;;;3.25;;
71914;SDS011;60387;49.994;14.660;2023-03-21T09:52:16;8.82;;;3.03;;
71914;SDS011;60387;49.994;14.660;2023-03-21T09:54:54;8.87;;;2.90;;
71914;SDS011;60387;49.994;14.660;2023-03-21T09:57:30;8.93;;;3.08;;
71914;SDS011;60387;49.994;14.660;2023-03-21T10:00:07;8.02;;;2.97;;
71914;SDS011;60387;49.994;14.660;2023-03-21T10:02:48;9.07;;;3.03;;
71914;SDS011;60387;49.994;14.660;2023-03-21T10:05:22;8.20;;;2.83;;
71914;SDS011;60387;49.994;14.660;2023-03-21T10:08:07;7.93;;;2.47;;
71914;SDS011;60387;49.994;14.660;2023-03-21T10:10:48;6.18;;;1.98;;
71914;SDS011;60387;49.994;14.660;2023-03-21T10:13:24;6.43;;;1.80;;
71914;SDS011;60387;49.994;14.660;2023-03-21T10:16:05;5.80;;;1.65;;
71914;SDS011;60387;49.994;14.660;2023-03-21T10:18:46;6.57;;;1.70;;
71914;SDS011;60387;49.994;14.660;2023-03-21T10:21:21;6.13;;;1.70;;
71914;SDS011;60387;49.994;14.660;2023-03-21T10:23:56;4.95;;;1.63;;
71914;SDS011;60387;49.994;14.660;2023-03-21T10:26:31;5.65;;;1.70;;
71914;SDS011;60387;49.994;14.660;2023-03-21T10:29:05;5.30;;;1.20;;
71914;SDS011;60387;49.994;14.660;2023-03-21T10:31:39;6.00;;;1.40;;
71914;SDS011;60387;49.994;14.660;2023-03-21T10:34:15;7.30;;;1.40;;
71914;SDS011;60387;49.994;14.660;2023-03-21T10:36:49;4.37;;;1.43;;
71914;SDS011;60387;49.994;14.660;2023-03-21T10:39:26;4.77;;;1.30;;
71914;SDS011;60387;49.994;14.660;2023-03-21T10:44:54;5.22;;;1.60;;
71914;SDS011;60387;49.994;14.660;2023-03-21T10:47:29;5.05;;;1.63;;
71914;SDS011;60387;49.994;14.660;2023-03-21T10:50:05;6.18;;;1.90;;
71914;SDS011;60387;49.994;14.660;2023-03-21T10:52:43;7.10;;;1.42;;
71914;SDS011;60387;49.994;14.660;2023-03-21T10:55:29;8.13;;;1.50;;
71914;SDS011;60387;49.994;14.660;2023-03-21T10:58:06;6.13;;;1.60;;
71914;SDS011;60387;49.994;14.660;2023-03-21T11:00:42;5.88;;;1.50;;
71914;SDS011;60387;49.994;14.660;2023-03-21T11:03:20;6.25;;;1.45;;
71914;SDS011;60387;49.994;14.660;2023-03-21T11:06:21;7.57;;;1.57;;
71914;SDS011;60387;49.994;14.660;2023-03-21T11:09:00;4.97;;;1.45;;
71914;SDS011;60387;49.994;14.660;2023-03-21T11:11:40;6.18;;;1.70;;
71914;SDS011;60387;49.994;14.660;2023-03-21T11:14:23;5.70;;;1.52;;
71914;SDS011;60387;49.994;14.660;2023-03-21T11:17:27;5.05;;;1.50;;
71914;SDS011;60387;49.994;14.660;2023-03-21T11:20:03;3.97;;;1.30;;
71914;SDS011;60387;49.994;14.660;2023-03-21T11:22:40;4.75;;;1.30;;
71914;SDS011;60387;49.994;14.660;2023-03-21T11:25:21;4.82;;;1.77;;
71914;SDS011;60387;49.994;14.660;2023-03-21T11:28:05;4.43;;;1.40;;
71914;SDS011;60387;49.994;14.660;2023-03-21T11:30:54;6.13;;;1.58;;
71914;SDS011;60387;49.994;14.660;2023-03-21T11:33:33;6.07;;;1.80;;
71914;SDS011;60387;49.994;14.660;2023-03-21T11:38:57;5.43;;;1.80;;
71914;SDS011;60387;49.994;14.660;2023-03-21T11:41:46;5.10;;;1.70;;
71914;SDS011;60387;49.994;14.660;2023-03-21T11:44:27;6.85;;;1.70;;
71914;SDS011;60387;49.994;14.660;2023-03-21T11:47:02;5.45;;;1.45;;
71914;SDS011;60387;49.994;14.660;2023-03-21T11:49:35;5.97;;;1.50;;
71914;SDS011;60387;49.994;14.660;2023-03-21T11:57:43;5.00;;;1.43;;
71914;SDS011;60387;49.994;14.660;2023-03-21T12:00:21;5.35;;;1.60;;
71914;SDS011;60387;49.994;14.660;2023-03-21T12:03:33;4.35;;;1.00;;
71914;SDS011;60387;49.994;14.660;2023-03-21T12:38:31;7.93;;;1.60;;
71914;SDS011;60387;49.994;14.660;2023-03-21T12:41:19;5.35;;;1.60;;
71914;SDS011;60387;49.994;14.660;2023-03-21T12:43:57;4.47;;;1.40;;
71914;SDS011;60387;49.994;14.660;2023-03-21T12:52:31;7.40;;;1.63;;
71914;SDS011;60387;49.994;14.660;2023-03-21T12:55:40;4.28;;;1.38;;
71914;SDS011;60387;49.994;14.660;2023-03-21T12:58:13;4.60;;;1.23;;
71914;SDS011;60387;49.994;14.660;2023-03-21T13:00:55;5.27;;;1.33;;
71914;SDS011;60387;49.994;14.660;2023-03-21T13:03:32;4.85;;;1.33;;
71914;SDS011;60387;49.994;14.660;2023-03-21T13:06:14;5.35;;;1.50;;
71914;SDS011;60387;49.994;14.660;2023-03-21T13:09:10;5.10;;;1.40;;
71914;SDS011;60387;49.994;14.660;2023-03-21T13:11:48;4.30;;;1.48;;
71914;SDS011;60387;49.994;14.660;2023-03-21T13:14:27;4.87;;;1.50;;
71914;SDS011;60387;49.994;14.660;2023-03-21T13:20:03;3.85;;;0.90;;
71914;SDS011;60387;49.994;14.660;2023-03-21T13:22:47;3.63;;;1.02;;
71914;SDS011;60387;49.994;14.660;2023-03-21T13:25:22;4.73;;;1.10;;
71914;SDS011;60387;49.994;14.660;2023-03-21T13:28:01;4.97;;;1.50;;
71914;SDS011;60387;49.994;14.660;2023-03-21T13:30:36;3.45;;;1.10;;
71914;SDS011;60387;49.994;14.660;2023-03-21T13:33:14;4.53;;;1.00;;
71914;SDS011;60387;49.994;14.660;2023-03-21T13:35:53;3.38;;;1.00;;
71914;SDS011;60387;49.994;14.660;2023-03-21T13:38:37;6.43;;;1.50;;
71914;SDS011;60387;49.994;14.660;2023-03-21T13:41:18;4.73;;;1.40;;
71914;SDS011;60387;49.994;14.660;2023-03-21T13:46:44;4.18;;;1.30;;
71914;SDS011;60387;49.994;14.660;2023-03-21T13:49:27;4.90;;;1.30;;
71914;SDS011;60387;49.994;14.660;2023-03-21T13:54:50;5.30;;;1.10;;
71914;SDS011;60387;49.994;14.660;2023-03-21T14:00:15;3.90;;;1.40;;
71914;SDS011;60387;49.994;14.660;2023-03-21T14:03:00;4.85;;;1.60;;
71914;SDS011;60387;49.994;14.660;2023-03-21T14:05:39;5.18;;;1.42;;
71914;SDS011;60387;49.994;14.660;2023-03-21T14:08:14;4.50;;;1.40;;
71914;SDS011;60387;49.994;14.660;2023-03-21T14:10:51;3.70;;;0.95;;
71914;SDS011;60387;49.994;14.660;2023-03-21T14:13:27;4.32;;;1.20;;
71914;SDS011;60387;49.994;14.660;2023-03-21T14:16:06;5.43;;;1.20;;
71914;SDS011;60387;49.994;14.660;2023-03-21T14:18:49;4.72;;;1.23;;
71914;SDS011;60387;49.994;14.660;2023-03-21T14:21:27;3.60;;;1.10;;
71914;SDS011;60387;49.994;14.660;2023-03-21T14:24:06;5.43;;;1.48;;
71914;SDS011;60387;49.994;14.660;2023-03-21T14:26:46;6.00;;;1.10;;
71914;SDS011;60387;49.994;14.660;2023-03-21T14:29:32;4.35;;;1.35;;
71914;SDS011;60387;49.994;14.660;2023-03-21T14:32:13;4.05;;;1.20;;
71914;SDS011;60387;49.994;14.660;2023-03-21T14:34:56;4.68;;;1.20;;
71914;SDS011;60387;49.994;14.660;2023-03-21T14:37:36;5.97;;;1.20;;
71914;SDS011;60387;49.994;14.660;2023-03-21T14:40:21;6.37;;;1.10;;
71914;SDS011;60387;49.994;14.660;2023-03-21T14:42:57;4.20;;;1.13;;
71914;SDS011;60387;49.994;14.660;2023-03-21T14:45:37;5.80;;;0.95;;
71914;SDS011;60387;49.994;14.660;2023-03-21T14:48:12;3.45;;;0.95;;
71914;SDS011;60387;49.994;14.660;2023-03-21T14:50:50;4.90;;;1.30;;
71914;SDS011;60387;49.994;14.660;2023-03-21T14:53:27;5.17;;;1.50;;
71914;SDS011;60387;49.994;14.660;2023-03-21T14:56:21;5.50;;;1.42;;
71914;SDS011;60387;49.994;14.660;2023-03-21T14:58:55;4.65;;;1.30;;
71914;SDS011;60387;49.994;14.660;2023-03-21T15:01:30;4.72;;;1.20;;
71914;SDS011;60387;49.994;14.660;2023-03-21T15:04:05;5.55;;;1.23;;
71914;SDS011;60387;49.994;14.660;2023-03-21T15:06:52;6.77;;;1.30;;
71914;SDS011;60387;49.994;14.660;2023-03-21T15:09:28;3.60;;;1.00;;
71914;SDS011;60387;49.994;14.660;2023-03-21T15:12:06;6.80;;;1.27;;
71914;SDS011;60387;49.994;14.660;2023-03-21T15:14:40;4.30;;;1.40;;
71914;SDS011;60387;49.994;14.660;2023-03-21T15:17:14;4.70;;;1.30;;
71914;SDS011;60387;49.994;14.660;2023-03-21T15:19:47;4.45;;;1.13;;
71914;SDS011;60387;49.994;14.660;2023-03-21T15:22:28;5.37;;;1.60;;
71914;SDS011;60387;49.994;14.660;2023-03-21T15:25:10;5.68;;;1.42;;
71914;SDS011;60387;49.994;14.660;2023-03-21T15:27:49;4.87;;;1.20;;
71914;SDS011;60387;49.994;14.660;2023-03-21T15:30:23;5.10;;;1.30;;
71914;SDS011;60387;49.994;14.660;2023-03-21T15:33:07;6.75;;;1.38;;
71914;SDS011;60387;49.994;14.660;2023-03-21T15:35:42;4.85;;;1.52;;
71914;SDS011;60387;49.994;14.660;2023-03-21T15:38:37;5.18;;;1.50;;
71914;SDS011;60387;49.994;14.660;2023-03-21T15:57:23;6.90;;;1.87;;
71914;SDS011;60387;49.994;14.660;2023-03-21T16:00:22;6.55;;;1.80;;
71914;SDS011;60387;49.994;14.660;2023-03-21T16:02:57;6.05;;;1.63;;
71914;SDS011;60387;49.994;14.660;2023-03-21T16:05:35;5.80;;;1.85;;
71914;SDS011;60387;49.994;14.660;2023-03-21T16:08:19;7.80;;;2.07;;
71914;SDS011;60387;49.994;14.660;2023-03-21T16:11:04;7.32;;;2.30;;
71914;SDS011;60387;49.994;14.660;2023-03-21T16:13:46;7.38;;;2.60;;
71914;SDS011;60387;49.994;14.660;2023-03-21T16:16:26;7.13;;;2.40;;
71914;SDS011;60387;49.994;14.660;2023-03-21T16:19:00;7.43;;;2.35;;
71914;SDS011;60387;49.994;14.660;2023-03-21T16:21:34;6.67;;;2.20;;
71914;SDS011;60387;49.994;14.660;2023-03-21T16:24:09;6.57;;;2.10;;
71914;SDS011;60387;49.994;14.660;2023-03-21T16:26:44;6.40;;;1.90;;
71914;SDS011;60387;49.994;14.660;2023-03-21T16:29:19;7.63;;;2.10;;
71914;SDS011;60387;49.994;14.660;2023-03-21T16:31:52;7.13;;;2.00;;
71914;SDS011;60387;49.994;14.660;2023-03-21T16:34:26;6.87;;;2.47;;
71914;SDS011;60387;49.994;14.660;2023-03-21T16:36:59;6.63;;;2.17;;
71914;SDS011;60387;49.994;14.660;2023-03-21T16:39:32;5.17;;;1.80;;
71914;SDS011;60387;49.994;14.660;2023-03-21T16:42:05;5.88;;;2.00;;
71914;SDS011;60387;49.994;14.660;2023-03-21T16:44:39;7.05;;;2.20;;
71914;SDS011;60387;49.994;14.660;2023-03-21T16:47:13;5.70;;;1.87;;
71914;SDS011;60387;49.994;14.660;2023-03-21T16:49:48;6.60;;;2.17;;
71914;SDS011;60387;49.994;14.660;2023-03-21T16:52:21;6.57;;;2.08;;
71914;SDS011;60387;49.994;14.660;2023-03-21T16:54:54;6.10;;;1.90;;
71914;SDS011;60387;49.994;14.660;2023-03-21T16:57:28;9.03;;;2.40;;
71914;SDS011;60387;49.994;14.660;2023-03-21T17:00:01;9.20;;;3.13;;
71914;SDS011;60387;49.994;14.660;2023-03-21T17:02:35;8.98;;;3.30;;
71914;SDS011;60387;49.994;14.660;2023-03-21T17:05:09;11.50;;;3.73;;
71914;SDS011;60387;49.994;14.660;2023-03-21T17:07:42;9.50;;;2.70;;
71914;SDS011;60387;49.994;14.660;2023-03-21T17:10:17;8.73;;;2.73;;
71914;SDS011;60387;49.994;14.660;2023-03-21T17:12:53;8.07;;;2.72;;
71914;SDS011;60387;49.994;14.660;2023-03-21T17:15:26;7.73;;;2.80;;